sensor_id;sensor_type;location;lat;lon;timestamp;pressure;altitude;pressure_sealevel;temperature;humidity
48848;BME280;75039;51.970;5.660;2024-01-06T00:01:14;100393.03;;;9.92;65.16
48848;BME280;75039;51.970;5.660;2024-01-06T00:03:42;100401.31;;;9.89;65.24
48848;BME280;75039;51.970;5.660;2024-01-06T00:06:12;100398.75;;;9.87;65.21
48848;BME280;75039;51.970;5.660;2024-01-06T00:08:39;100398.88;;;9.86;65.29
48848;BME280;75039;51.970;5.660;2024-01-06T00:11:06;100408.00;;;9.83;65.35
48848;BME280;75039;51.970;5.660;2024-01-06T00:13:32;100409.09;;;9.81;65.30
48848;BME280;75039;51.970;5.660;2024-01-06T00:16:00;100417.38;;;9.78;65.45
48848;BME280;75039;51.970;5.660;2024-01-06T00:18:27;100414.91;;;9.75;65.11
48848;BME280;75039;51.970;5.660;2024-01-06T00:20:53;100416.13;;;9.71;65.38
48848;BME280;75039;51.970;5.660;2024-01-06T00:23:20;100425.13;;;9.70;65.09
48848;BME280;75039;51.970;5.660;2024-01-06T00:25:47;100427.06;;;9.68;65.12
48848;BME280;75039;51.970;5.660;2024-01-06T00:28:14;100432.53;;;9.66;65.16
48848;BME280;75039;51.970;5.660;2024-01-06T00:30:40;100430.91;;;9.64;64.96
48848;BME280;75039;51.970;5.660;2024-01-06T00:33:07;100436.28;;;9.64;64.91
48848;BME280;75039;51.970;5.660;2024-01-06T00:35:34;100438.94;;;9.64;64.95
48848;BME280;75039;51.970;5.660;2024-01-06T00:38:01;100436.50;;;9.61;64.94
48848;BME280;75039;51.970;5.660;2024-01-06T00:40:27;100447.22;;;9.61;64.94
48848;BME280;75039;51.970;5.660;2024-01-06T00:42:54;100442.94;;;9.58;65.09
48848;BME280;75039;51.970;5.660;2024-01-06T00:45:21;100451.09;;;9.56;64.98
48848;BME280;75039;51.970;5.660;2024-01-06T00:47:49;100444.25;;;9.52;64.66
48848;BME280;75039;51.970;5.660;2024-01-06T00:50:17;100444.25;;;9.52;65.00
48848;BME280;75039;51.970;5.660;2024-01-06T00:52:46;100451.44;;;9.52;64.69
48848;BME280;75039;51.970;5.660;2024-01-06T00:55:13;100448.97;;;9.49;64.74
48848;BME280;75039;51.970;5.660;2024-01-06T00:57:40;100440.94;;;9.49;64.82
48848;BME280;75039;51.970;5.660;2024-01-06T01:00:06;100444.47;;;9.49;64.78
48848;BME280;75039;51.970;5.660;2024-01-06T01:02:33;100450.91;;;9.47;64.83
48848;BME280;75039;51.970;5.660;2024-01-06T01:05:03;100450.06;;;9.46;64.74
48848;BME280;75039;51.970;5.660;2024-01-06T01:07:30;100453.59;;;9.47;64.84
48848;BME280;75039;51.970;5.660;2024-01-06T01:09:57;100457.25;;;9.46;64.52
48848;BME280;75039;51.970;5.660;2024-01-06T01:12:24;100460.03;;;9.44;64.48
48848;BME280;75039;51.970;5.660;2024-01-06T01:14:51;100458.44;;;9.42;64.59
48848;BME280;75039;51.970;5.660;2024-01-06T01:17:18;100467.56;;;9.39;64.59
48848;BME280;75039;51.970;5.660;2024-01-06T01:19:45;100474.84;;;9.37;64.47
48848;BME280;75039;51.970;5.660;2024-01-06T01:22:12;100469.59;;;9.36;64.37
48848;BME280;75039;51.970;5.660;2024-01-06T01:24:39;100475.06;;;9.34;64.55
48848;BME280;75039;51.970;5.660;2024-01-06T01:27:06;100479.56;;;9.34;64.24
48848;BME280;75039;51.970;5.660;2024-01-06T01:29:32;100476.03;;;9.33;64.34
48848;BME280;75039;51.970;5.660;2024-01-06T01:31:59;100482.34;;;9.32;64.23
48848;BME280;75039;51.970;5.660;2024-01-06T01:34:26;100487.81;;;9.31;64.44
48848;BME280;75039;51.970;5.660;2024-01-06T01:36:53;100490.72;;;9.28;64.21
48848;BME280;75039;51.970;5.660;2024-01-06T01:39:20;100498.00;;;9.26;64.33
48848;BME280;75039;51.970;5.660;2024-01-06T01:41:47;100507.13;;;9.23;64.10
48848;BME280;75039;51.970;5.660;2024-01-06T01:44:13;100499.41;;;9.18;64.16
48848;BME280;75039;51.970;5.660;2024-01-06T01:46:40;100507.78;;;9.14;64.25
48848;BME280;75039;51.970;5.660;2024-01-06T01:49:07;100506.06;;;9.13;64.45
48848;BME280;75039;51.970;5.660;2024-01-06T01:51:35;100509.81;;;9.10;64.23
48848;BME280;75039;51.970;5.660;2024-01-06T01:54:04;100515.28;;;9.09;64.17
48848;BME280;75039;51.970;5.660;2024-01-06T01:56:32;100520.63;;;9.09;64.32
48848;BME280;75039;51.970;5.660;2024-01-06T01:59:06;100529.66;;;9.08;64.23
48848;BME280;75039;51.970;5.660;2024-01-06T02:01:35;100528.78;;;9.07;64.35
48848;BME280;75039;51.970;5.660;2024-01-06T02:04:02;100527.28;;;9.03;64.13
48848;BME280;75039;51.970;5.660;2024-01-06T02:06:29;100532.75;;;9.02;64.16
48848;BME280;75039;51.970;5.660;2024-01-06T02:08:56;100548.94;;;9.00;64.24
48848;BME280;75039;51.970;5.660;2024-01-06T02:11:23;100550.84;;;8.98;64.25
48848;BME280;75039;51.970;5.660;2024-01-06T02:13:50;100559.84;;;8.97;64.29
48848;BME280;75039;51.970;5.660;2024-01-06T02:16:17;100552.78;;;8.96;64.42
48848;BME280;75039;51.970;5.660;2024-01-06T02:18:44;100559.38;;;8.90;64.38
48848;BME280;75039;51.970;5.660;2024-01-06T02:21:11;100560.66;;;8.85;64.16
48848;BME280;75039;51.970;5.660;2024-01-06T02:23:38;100562.59;;;8.83;64.43
48848;BME280;75039;51.970;5.660;2024-01-06T02:26:05;100560.97;;;8.80;64.36
48848;BME280;75039;51.970;5.660;2024-01-06T02:28:31;100567.28;;;8.79;64.46
48848;BME280;75039;51.970;5.660;2024-01-06T02:30:58;100566.53;;;8.77;64.50
48848;BME280;75039;51.970;5.660;2024-01-06T02:33:25;100563.13;;;8.75;64.25
48848;BME280;75039;51.970;5.660;2024-01-06T02:35:52;100567.72;;;8.73;64.47
48848;BME280;75039;51.970;5.660;2024-01-06T02:38:18;100575.00;;;8.71;64.12
48848;BME280;75039;51.970;5.660;2024-01-06T02:40:45;100581.41;;;8.69;64.24
48848;BME280;75039;51.970;5.660;2024-01-06T02:43:12;100579.69;;;8.68;64.35
48848;BME280;75039;51.970;5.660;2024-01-06T02:45:38;100582.47;;;8.66;64.38
48848;BME280;75039;51.970;5.660;2024-01-06T02:48:05;100583.44;;;8.65;64.23
48848;BME280;75039;51.970;5.660;2024-01-06T02:50:32;100591.47;;;8.65;64.22
48848;BME280;75039;51.970;5.660;2024-01-06T02:52:59;100583.44;;;8.65;64.30
48848;BME280;75039;51.970;5.660;2024-01-06T02:55:25;100593.38;;;8.63;64.45
48848;BME280;75039;51.970;5.660;2024-01-06T02:57:52;100598.75;;;8.63;64.48
48848;BME280;75039;51.970;5.660;2024-01-06T03:00:19;100601.53;;;8.62;64.41
48848;BME280;75039;51.970;5.660;2024-01-06T03:02:45;100599.69;;;8.62;64.25
48848;BME280;75039;51.970;5.660;2024-01-06T03:05:12;100603.25;;;8.63;64.32
48848;BME280;75039;51.970;5.660;2024-01-06T03:07:39;100598.94;;;8.60;64.12
48848;BME280;75039;51.970;5.660;2024-01-06T03:10:06;100599.91;;;8.59;64.34
48848;BME280;75039;51.970;5.660;2024-01-06T03:12:33;100607.94;;;8.59;64.13
48848;BME280;75039;51.970;5.660;2024-01-06T03:15:00;100612.44;;;8.58;64.28
48848;BME280;75039;51.970;5.660;2024-01-06T03:17:26;100615.88;;;8.60;64.47
48848;BME280;75039;51.970;5.660;2024-01-06T03:19:56;100618.44;;;8.62;64.37
48848;BME280;75039;51.970;5.660;2024-01-06T03:22:23;100616.72;;;8.61;64.42
48848;BME280;75039;51.970;5.660;2024-01-06T03:24:50;100624.66;;;8.63;64.10
48848;BME280;75039;51.970;5.660;2024-01-06T03:27:16;100621.97;;;8.63;64.19
48848;BME280;75039;51.970;5.660;2024-01-06T03:29:43;100621.03;;;8.64;64.32
48848;BME280;75039;51.970;5.660;2024-01-06T03:32:10;100629.06;;;8.64;64.14
48848;BME280;75039;51.970;5.660;2024-01-06T03:34:37;100635.38;;;8.63;64.08
48848;BME280;75039;51.970;5.660;2024-01-06T03:37:04;100643.28;;;8.64;64.08
48848;BME280;75039;51.970;5.660;2024-01-06T03:39:31;100646.06;;;8.63;64.22
48848;BME280;75039;51.970;5.660;2024-01-06T03:41:57;100645.09;;;8.64;64.18
48848;BME280;75039;51.970;5.660;2024-01-06T03:44:24;100646.06;;;8.63;64.30
48848;BME280;75039;51.970;5.660;2024-01-06T03:46:51;100651.44;;;8.63;64.45
48848;BME280;75039;51.970;5.660;2024-01-06T03:49:18;100656.78;;;8.63;64.31
48848;BME280;75039;51.970;5.660;2024-01-06T03:51:47;100658.50;;;8.64;64.07
48848;BME280;75039;51.970;5.660;2024-01-06T03:54:14;100664.72;;;8.64;64.27
48848;BME280;75039;51.970;5.660;2024-01-06T03:56:41;100660.22;;;8.65;64.39
48848;BME280;75039;51.970;5.660;2024-01-06T03:59:08;100661.06;;;8.65;64.39
48848;BME280;75039;51.970;5.660;2024-01-06T04:01:34;100660.13;;;8.66;64.15
48848;BME280;75039;51.970;5.660;2024-01-06T04:04:02;100664.59;;;8.66;64.07
48848;BME280;75039;51.970;5.660;2024-01-06T04:06:32;100669.19;;;8.64;64.23
48848;BME280;75039;51.970;5.660;2024-01-06T04:09:00;100676.47;;;8.62;64.26
48848;BME280;75039;51.970;5.660;2024-01-06T04:11:27;100675.63;;;8.61;64.38
48848;BME280;75039;51.970;5.660;2024-01-06T04:13:53;100677.34;;;8.62;64.14
48848;BME280;75039;51.970;5.660;2024-01-06T04:16:20;100679.16;;;8.62;64.27
48848;BME280;75039;51.970;5.660;2024-01-06T04:18:47;100680.22;;;8.59;64.27
48848;BME280;75039;51.970;5.660;2024-01-06T04:21:13;100677.53;;;8.59;64.24
48848;BME280;75039;51.970;5.660;2024-01-06T04:23:40;100676.78;;;8.57;64.13
48848;BME280;75039;51.970;5.660;2024-01-06T04:26:07;100686.53;;;8.58;64.00
48848;BME280;75039;51.970;5.660;2024-01-06T04:28:33;100687.47;;;8.57;64.21
48848;BME280;75039;51.970;5.660;2024-01-06T04:31:00;100690.06;;;8.58;64.23
48848;BME280;75039;51.970;5.660;2024-01-06T04:33:27;100693.59;;;8.59;64.33
48848;BME280;75039;51.970;5.660;2024-01-06T04:35:54;100696.28;;;8.59;64.20
48848;BME280;75039;51.970;5.660;2024-01-06T04:38:20;100701.63;;;8.59;64.19
48848;BME280;75039;51.970;5.660;2024-01-06T04:40:47;100707.19;;;8.56;64.22
48848;BME280;75039;51.970;5.660;2024-01-06T04:43:14;100704.50;;;8.56;63.98
48848;BME280;75039;51.970;5.660;2024-01-06T04:45:41;100702.88;;;8.53;64.07
48848;BME280;75039;51.970;5.660;2024-01-06T04:48:07;100697.63;;;8.52;63.96
48848;BME280;75039;51.970;5.660;2024-01-06T04:50:35;100703.09;;;8.50;63.89
48848;BME280;75039;51.970;5.660;2024-01-06T04:53:01;100705.97;;;8.47;64.07
48848;BME280;75039;51.970;5.660;2024-01-06T04:55:28;100705.50;;;8.41;63.73
48848;BME280;75039;51.970;5.660;2024-01-06T04:57:55;100706.66;;;8.37;63.78
48848;BME280;75039;51.970;5.660;2024-01-06T05:00:22;100702.41;;;8.33;63.89
48848;BME280;75039;51.970;5.660;2024-01-06T05:02:48;100705.19;;;8.31;63.92
48848;BME280;75039;51.970;5.660;2024-01-06T05:05:15;100704.34;;;8.31;63.89
48848;BME280;75039;51.970;5.660;2024-01-06T05:07:42;100716.00;;;8.29;64.03
48848;BME280;75039;51.970;5.660;2024-01-06T05:10:08;100711.69;;;8.27;63.89
48848;BME280;75039;51.970;5.660;2024-01-06T05:12:35;100712.84;;;8.23;63.95
48848;BME280;75039;51.970;5.660;2024-01-06T05:15:02;100719.34;;;8.19;63.59
48848;BME280;75039;51.970;5.660;2024-01-06T05:17:29;100724.97;;;8.14;63.95
48848;BME280;75039;51.970;5.660;2024-01-06T05:19:55;100724.38;;;8.09;63.78
48848;BME280;75039;51.970;5.660;2024-01-06T05:22:23;100735.28;;;8.06;63.77
48848;BME280;75039;51.970;5.660;2024-01-06T05:24:50;100738.06;;;8.05;63.89
48848;BME280;75039;51.970;5.660;2024-01-06T05:27:19;100740.81;;;8.03;63.76
48848;BME280;75039;51.970;5.660;2024-01-06T05:29:46;100750.66;;;8.03;63.87
48848;BME280;75039;51.970;5.660;2024-01-06T05:32:16;100746.16;;;8.03;63.98
48848;BME280;75039;51.970;5.660;2024-01-06T05:34:43;100760.41;;;8.04;63.95
48848;BME280;75039;51.970;5.660;2024-01-06T05:37:11;100760.59;;;8.01;63.85
48848;BME280;75039;51.970;5.660;2024-01-06T05:39:38;100762.59;;;7.97;63.78
48848;BME280;75039;51.970;5.660;2024-01-06T05:42:09;100760.97;;;7.94;63.59
48848;BME280;75039;51.970;5.660;2024-01-06T05:44:37;100766.50;;;7.91;63.62
48848;BME280;75039;51.970;5.660;2024-01-06T05:47:04;100764.88;;;7.89;63.62
48848;BME280;75039;51.970;5.660;2024-01-06T05:49:31;100756.94;;;7.87;63.65
48848;BME280;75039;51.970;5.660;2024-01-06T05:51:57;100780.25;;;7.85;63.59
48848;BME280;75039;51.970;5.660;2024-01-06T05:54:24;100778.53;;;7.84;63.74
48848;BME280;75039;51.970;5.660;2024-01-06T05:56:51;100776.72;;;7.85;63.75
48848;BME280;75039;51.970;5.660;2024-01-06T05:59:18;100778.53;;;7.84;63.48
48848;BME280;75039;51.970;5.660;2024-01-06T06:01:44;100778.63;;;7.83;63.55
48848;BME280;75039;51.970;5.660;2024-01-06T06:04:11;100792.09;;;7.81;63.44
48848;BME280;75039;51.970;5.660;2024-01-06T06:06:38;100801.16;;;7.79;63.37
48848;BME280;75039;51.970;5.660;2024-01-06T06:09:05;100796.00;;;7.76;63.44
48848;BME280;75039;51.970;5.660;2024-01-06T06:11:33;100814.78;;;7.74;63.26
48848;BME280;75039;51.970;5.660;2024-01-06T06:14:00;100811.44;;;7.71;63.45
48848;BME280;75039;51.970;5.660;2024-01-06T06:16:29;100813.34;;;7.69;63.47
48848;BME280;75039;51.970;5.660;2024-01-06T06:18:56;100817.81;;;7.68;63.47
48848;BME280;75039;51.970;5.660;2024-01-06T06:21:23;100825.06;;;7.66;63.41
48848;BME280;75039;51.970;5.660;2024-01-06T06:23:50;100825.94;;;7.67;63.31
48848;BME280;75039;51.970;5.660;2024-01-06T06:26:17;100840.16;;;7.67;63.29
48848;BME280;75039;51.970;5.660;2024-01-06T06:28:44;100842.84;;;7.67;63.29
48848;BME280;75039;51.970;5.660;2024-01-06T06:31:11;100840.25;;;7.65;63.27
48848;BME280;75039;51.970;5.660;2024-01-06T06:33:38;100847.50;;;7.63;63.29
48848;BME280;75039;51.970;5.660;2024-01-06T06:36:06;100845.09;;;7.59;63.08
48848;BME280;75039;51.970;5.660;2024-01-06T06:38:33;100853.31;;;7.56;63.11
48848;BME280;75039;51.970;5.660;2024-01-06T06:41:00;100853.47;;;7.53;63.32
48848;BME280;75039;51.970;5.660;2024-01-06T06:43:26;100859.00;;;7.50;63.33
48848;BME280;75039;51.970;5.660;2024-01-06T06:45:53;100859.00;;;7.50;63.15
48848;BME280;75039;51.970;5.660;2024-01-06T06:48:22;100870.56;;;7.50;63.27
48848;BME280;75039;51.970;5.660;2024-01-06T06:50:49;100868.84;;;7.49;63.33
48848;BME280;75039;51.970;5.660;2024-01-06T06:53:15;100876.84;;;7.49;63.23
48848;BME280;75039;51.970;5.660;2024-01-06T06:55:42;100884.88;;;7.49;63.23
48848;BME280;75039;51.970;5.660;2024-01-06T06:58:09;100889.25;;;7.50;63.32
48848;BME280;75039;51.970;5.660;2024-01-06T07:00:36;100894.44;;;7.53;63.15
48848;BME280;75039;51.970;5.660;2024-01-06T07:03:04;100897.00;;;7.55;63.17
48848;BME280;75039;51.970;5.660;2024-01-06T07:05:31;100896.84;;;7.58;63.38
48848;BME280;75039;51.970;5.660;2024-01-06T07:08:00;100896.75;;;7.59;63.18
48848;BME280;75039;51.970;5.660;2024-01-06T07:10:27;100907.25;;;7.62;63.35
48848;BME280;75039;51.970;5.660;2024-01-06T07:12:54;100908.22;;;7.61;63.22
48848;BME280;75039;51.970;5.660;2024-01-06T07:15:20;100906.56;;;7.59;63.29
48848;BME280;75039;51.970;5.660;2024-01-06T07:17:48;100913.72;;;7.58;63.10
48848;BME280;75039;51.970;5.660;2024-01-06T07:20:15;100924.41;;;7.58;63.17
48848;BME280;75039;51.970;5.660;2024-01-06T07:22:41;100924.59;;;7.55;62.99
48848;BME280;75039;51.970;5.660;2024-01-06T07:25:08;100932.63;;;7.55;63.26
48848;BME280;75039;51.970;5.660;2024-01-06T07:27:35;100937.97;;;7.55;63.26
48848;BME280;75039;51.970;5.660;2024-01-06T07:30:01;100942.53;;;7.53;63.14
48848;BME280;75039;51.970;5.660;2024-01-06T07:32:28;100952.44;;;7.51;63.01
48848;BME280;75039;51.970;5.660;2024-01-06T07:34:55;100956.06;;;7.50;63.01
48848;BME280;75039;51.970;5.660;2024-01-06T07:37:22;100950.81;;;7.49;62.90
48848;BME280;75039;51.970;5.660;2024-01-06T07:39:48;100952.63;;;7.48;63.12
48848;BME280;75039;51.970;5.660;2024-01-06T07:42:15;100961.66;;;7.46;63.07
48848;BME280;75039;51.970;5.660;2024-01-06T07:44:42;100960.81;;;7.45;63.14
48848;BME280;75039;51.970;5.660;2024-01-06T07:47:08;100954.59;;;7.45;63.09
48848;BME280;75039;51.970;5.660;2024-01-06T07:49:35;100962.53;;;7.46;63.16
48848;BME280;75039;51.970;5.660;2024-01-06T07:52:03;100963.31;;;7.48;63.09
48848;BME280;75039;51.970;5.660;2024-01-06T07:54:30;100970.38;;;7.49;63.11
48848;BME280;75039;51.970;5.660;2024-01-06T07:56:56;100976.59;;;7.50;63.21
48848;BME280;75039;51.970;5.660;2024-01-06T07:59:23;100983.66;;;7.51;63.22
48848;BME280;75039;51.970;5.660;2024-01-06T08:01:50;100981.06;;;7.49;63.12
48848;BME280;75039;51.970;5.660;2024-01-06T08:04:17;100991.06;;;7.46;62.97
48848;BME280;75039;51.970;5.660;2024-01-06T08:06:43;100992.88;;;7.45;62.86
48848;BME280;75039;51.970;5.660;2024-01-06T08:09:10;100986.81;;;7.42;62.87
48848;BME280;75039;51.970;5.660;2024-01-06T08:11:37;100995.00;;;7.39;63.22
48848;BME280;75039;51.970;5.660;2024-01-06T08:14:04;101004.03;;;7.36;63.03
48848;BME280;75039;51.970;5.660;2024-01-06T08:16:30;101006.78;;;7.34;63.04
48848;BME280;75039;51.970;5.660;2024-01-06T08:18:59;101017.41;;;7.36;62.99
48848;BME280;75039;51.970;5.660;2024-01-06T08:21:26;101020.94;;;7.37;63.10
48848;BME280;75039;51.970;5.660;2024-01-06T08:23:53;101021.78;;;7.37;63.13
48848;BME280;75039;51.970;5.660;2024-01-06T08:26:20;101024.47;;;7.37;63.21
48848;BME280;75039;51.970;5.660;2024-01-06T08:28:47;101029.88;;;7.36;63.13
48848;BME280;75039;51.970;5.660;2024-01-06T08:31:13;101035.31;;;7.34;62.85
48848;BME280;75039;51.970;5.660;2024-01-06T08:33:40;101040.81;;;7.31;63.07
48848;BME280;75039;51.970;5.660;2024-01-06T08:36:07;101040.81;;;7.31;62.85
48848;BME280;75039;51.970;5.660;2024-01-06T08:38:34;101050.75;;;7.29;62.81
48848;BME280;75039;51.970;5.660;2024-01-06T08:41:01;101052.72;;;7.25;62.86
48848;BME280;75039;51.970;5.660;2024-01-06T08:43:29;101056.50;;;7.21;62.83
48848;BME280;75039;51.970;5.660;2024-01-06T08:45:55;101061.13;;;7.18;62.84
48848;BME280;75039;51.970;5.660;2024-01-06T08:48:22;101065.69;;;7.16;62.75
48848;BME280;75039;51.970;5.660;2024-01-06T08:50:49;101070.09;;;7.17;62.95
48848;BME280;75039;51.970;5.660;2024-01-06T08:53:16;101076.38;;;7.16;62.76
48848;BME280;75039;51.970;5.660;2024-01-06T08:55:43;101073.63;;;7.17;62.89
48848;BME280;75039;51.970;5.660;2024-01-06T08:58:13;101074.31;;;7.21;62.85
48848;BME280;75039;51.970;5.660;2024-01-06T09:00:40;101082.19;;;7.24;63.03
48848;BME280;75039;51.970;5.660;2024-01-06T09:03:06;101085.47;;;7.29;62.85
48848;BME280;75039;51.970;5.660;2024-01-06T09:05:33;101085.22;;;7.33;63.11
48848;BME280;75039;51.970;5.660;2024-01-06T09:08:00;101088.59;;;7.37;63.22
48848;BME280;75039;51.970;5.660;2024-01-06T09:10:27;101087.66;;;7.38;62.80
48848;BME280;75039;51.970;5.660;2024-01-06T09:12:55;101094.78;;;7.38;62.88
48848;BME280;75039;51.970;5.660;2024-01-06T09:15:23;101101.09;;;7.37;63.02
48848;BME280;75039;51.970;5.660;2024-01-06T09:17:50;101102.13;;;7.34;62.71
48848;BME280;75039;51.970;5.660;2024-01-06T09:20:17;101103.13;;;7.31;62.68
48848;BME280;75039;51.970;5.660;2024-01-06T09:22:49;101109.50;;;7.29;62.58
48848;BME280;75039;51.970;5.660;2024-01-06T09:25:16;101113.22;;;7.26;62.41
48848;BME280;75039;51.970;5.660;2024-01-06T09:27:43;101115.00;;;7.26;62.46
48848;BME280;75039;51.970;5.660;2024-01-06T09:30:10;101119.50;;;7.25;62.55
48848;BME280;75039;51.970;5.660;2024-01-06T09:32:38;101120.34;;;7.26;62.66
48848;BME280;75039;51.970;5.660;2024-01-06T09:35:05;101126.56;;;7.26;62.50
48848;BME280;75039;51.970;5.660;2024-01-06T09:37:32;101137.16;;;7.28;62.83
48848;BME280;75039;51.970;5.660;2024-01-06T09:39:59;101140.53;;;7.31;62.63
48848;BME280;75039;51.970;5.660;2024-01-06T09:42:25;101144.84;;;7.34;62.76
48848;BME280;75039;51.970;5.660;2024-01-06T09:44:52;101145.72;;;7.34;62.75
48848;BME280;75039;51.970;5.660;2024-01-06T09:47:22;101151.84;;;7.37;62.60
48848;BME280;75039;51.970;5.660;2024-01-06T09:49:49;101158.91;;;7.38;62.69
48848;BME280;75039;51.970;5.660;2024-01-06T09:52:21;101158.06;;;7.37;62.44
48848;BME280;75039;51.970;5.660;2024-01-06T09:54:53;101160.81;;;7.36;62.52
48848;BME280;75039;51.970;5.660;2024-01-06T09:57:22;101161.66;;;7.36;62.48
48848;BME280;75039;51.970;5.660;2024-01-06T09:59:49;101164.25;;;7.38;62.42
48848;BME280;75039;51.970;5.660;2024-01-06T10:02:16;101165.13;;;7.38;62.36
48848;BME280;75039;51.970;5.660;2024-01-06T10:04:44;101168.66;;;7.39;62.45
48848;BME280;75039;51.970;5.660;2024-01-06T10:07:14;101169.59;;;7.38;62.52
48848;BME280;75039;51.970;5.660;2024-01-06T10:09:41;101174.00;;;7.39;62.39
48848;BME280;75039;51.970;5.660;2024-01-06T10:12:08;101171.25;;;7.40;62.35
48848;BME280;75039;51.970;5.660;2024-01-06T10:14:36;101177.25;;;7.45;62.35
48848;BME280;75039;51.970;5.660;2024-01-06T10:17:06;101184.16;;;7.49;62.42
48848;BME280;75039;51.970;5.660;2024-01-06T10:19:35;101182.50;;;7.47;62.12
48848;BME280;75039;51.970;5.660;2024-01-06T10:22:02;101184.47;;;7.43;61.99
48848;BME280;75039;51.970;5.660;2024-01-06T10:24:29;101185.47;;;7.41;61.96
48848;BME280;75039;51.970;5.660;2024-01-06T10:26:58;101190.91;;;7.39;61.92
48848;BME280;75039;51.970;5.660;2024-01-06T10:29:25;101188.16;;;7.41;61.98
48848;BME280;75039;51.970;5.660;2024-01-06T10:31:54;101187.28;;;7.40;61.67
48848;BME280;75039;51.970;5.660;2024-01-06T10:34:22;101192.00;;;7.35;61.74
48848;BME280;75039;51.970;5.660;2024-01-06T10:36:50;101204.66;;;7.31;61.47
48848;BME280;75039;51.970;5.660;2024-01-06T10:39:20;101203.94;;;7.28;61.50
48848;BME280;75039;51.970;5.660;2024-01-06T10:41:49;101212.03;;;7.26;61.44
48848;BME280;75039;51.970;5.660;2024-01-06T10:44:15;101213.84;;;7.26;61.45
48848;BME280;75039;51.970;5.660;2024-01-06T10:46:44;101213.00;;;7.25;61.50
48848;BME280;75039;51.970;5.660;2024-01-06T10:49:11;101220.06;;;7.26;61.74
48848;BME280;75039;51.970;5.660;2024-01-06T10:51:39;101224.47;;;7.27;61.84
48848;BME280;75039;51.970;5.660;2024-01-06T10:54:07;101217.16;;;7.31;61.78
48848;BME280;75039;51.970;5.660;2024-01-06T10:56:37;101216.06;;;7.35;61.92
48848;BME280;75039;51.970;5.660;2024-01-06T10:59:05;101214.16;;;7.37;61.67
48848;BME280;75039;51.970;5.660;2024-01-06T11:01:34;101220.44;;;7.36;61.49
48848;BME280;75039;51.970;5.660;2024-01-06T11:04:02;101219.66;;;7.34;61.76
48848;BME280;75039;51.970;5.660;2024-01-06T11:06:35;101220.59;;;7.33;61.50
48848;BME280;75039;51.970;5.660;2024-01-06T11:11:35;101226.81;;;7.33;61.44
48848;BME280;75039;51.970;5.660;2024-01-06T11:14:22;101229.50;;;7.33;61.56
48848;BME280;75039;51.970;5.660;2024-01-06T11:16:49;101235.63;;;7.36;61.71
48848;BME280;75039;51.970;5.660;2024-01-06T11:22:29;101237.28;;;7.38;61.47
48848;BME280;75039;51.970;5.660;2024-01-06T11:25:06;101238.06;;;7.40;61.68
48848;BME280;75039;51.970;5.660;2024-01-06T11:27:34;101242.44;;;7.41;61.53
48848;BME280;75039;51.970;5.660;2024-01-06T11:30:03;101240.59;;;7.43;61.45
48848;BME280;75039;51.970;5.660;2024-01-06T11:32:35;101249.59;;;7.41;61.63
48848;BME280;75039;51.970;5.660;2024-01-06T11:42:48;101248.59;;;7.26;61.09
48848;BME280;75039;51.970;5.660;2024-01-06T11:45:15;101242.38;;;7.25;61.24
48848;BME280;75039;51.970;5.660;2024-01-06T11:47:47;101254.09;;;7.23;61.06
48848;BME280;75039;51.970;5.660;2024-01-06T11:50:15;101240.88;;;7.20;61.04
48848;BME280;75039;51.970;5.660;2024-01-06T11:52:42;101238.28;;;7.18;61.18
48848;BME280;75039;51.970;5.660;2024-01-06T11:55:09;101240.81;;;7.21;61.26
48848;BME280;75039;51.970;5.660;2024-01-06T11:57:37;101243.25;;;7.26;61.37
48848;BME280;75039;51.970;5.660;2024-01-06T12:00:06;101241.34;;;7.28;61.24
48848;BME280;75039;51.970;5.660;2024-01-06T12:02:33;101244.03;;;7.28;61.28
48848;BME280;75039;51.970;5.660;2024-01-06T12:04:59;101246.69;;;7.28;61.40
48848;BME280;75039;51.970;5.660;2024-01-06T12:07:26;101254.63;;;7.29;61.34
48848;BME280;75039;51.970;5.660;2024-01-06T12:10:03;101247.41;;;7.31;61.65
48848;BME280;75039;51.970;5.660;2024-01-06T12:12:35;101246.38;;;7.34;61.35
48848;BME280;75039;51.970;5.660;2024-01-06T12:15:02;101246.22;;;7.37;61.38
48848;BME280;75039;51.970;5.660;2024-01-06T12:17:30;101250.63;;;7.38;61.42
48848;BME280;75039;51.970;5.660;2024-01-06T12:19:57;101252.44;;;7.38;61.53
48848;BME280;75039;51.970;5.660;2024-01-06T12:22:25;101248.81;;;7.39;61.29
48848;BME280;75039;51.970;5.660;2024-01-06T12:24:52;101248.81;;;7.39;61.53
48848;BME280;75039;51.970;5.660;2024-01-06T12:27:18;101247.97;;;7.38;61.30
48848;BME280;75039;51.970;5.660;2024-01-06T12:29:48;101249.84;;;7.36;61.21
48848;BME280;75039;51.970;5.660;2024-01-06T12:32:15;101255.25;;;7.34;61.33
48848;BME280;75039;51.970;5.660;2024-01-06T12:34:41;101255.41;;;7.31;61.18
48848;BME280;75039;51.970;5.660;2024-01-06T12:37:08;101258.00;;;7.33;61.43
48848;BME280;75039;51.970;5.660;2024-01-06T12:39:35;101250.72;;;7.37;61.19
48848;BME280;75039;51.970;5.660;2024-01-06T12:42:02;101256.91;;;7.37;61.23
48848;BME280;75039;51.970;5.660;2024-01-06T12:44:29;101255.19;;;7.36;61.20
48848;BME280;75039;51.970;5.660;2024-01-06T12:46:56;101256.91;;;7.37;61.27
48848;BME280;75039;51.970;5.660;2024-01-06T12:49:22;101263.13;;;7.38;61.30
48848;BME280;75039;51.970;5.660;2024-01-06T12:51:49;101259.50;;;7.39;61.32
48848;BME280;75039;51.970;5.660;2024-01-06T12:54:16;101262.19;;;7.39;61.41
48848;BME280;75039;51.970;5.660;2024-01-06T12:56:43;101263.81;;;7.41;61.58
48848;BME280;75039;51.970;5.660;2024-01-06T12:59:10;101261.97;;;7.43;61.59
48848;BME280;75039;51.970;5.660;2024-01-06T13:01:38;101264.56;;;7.45;61.42
48848;BME280;75039;51.970;5.660;2024-01-06T13:04:05;101261.03;;;7.44;61.41
48848;BME280;75039;51.970;5.660;2024-01-06T13:06:32;101262.97;;;7.41;61.16
48848;BME280;75039;51.970;5.660;2024-01-06T13:08:59;101270.34;;;7.36;61.30
48848;BME280;75039;51.970;5.660;2024-01-06T13:11:26;101263.34;;;7.33;61.21
48848;BME280;75039;51.970;5.660;2024-01-06T13:13:54;101274.19;;;7.30;61.16